Time;durP1;ratioP1;P1;durP2;ratioP2;P2;SDS_P1;SDS_P2;PMS_P1;PMS_P2;Temp;Humidity;BMP_temperature;BMP_pressure;BME280_temperature;BME280_humidity;BME280_pressure;Samples;Min_cycle;Max_cycle;Signal;HPM_P1;HPM_P2
2024/01/16 00:00:06;;;;;;;3.83;0.47;;;-0.60;99.90;;;;;;5029910;28;20079;-73
2024/01/16 00:02:32;;;;;;;1.13;0.40;;;-0.50;99.90;;;;;;4996825;28;20053;-73
2024/01/16 00:04:58;;;;;;;0.38;0.30;;;-0.50;99.90;;;;;;5032216;28;20065;-73
2024/01/16 00:07:23;;;;;;;12.07;0.93;;;-0.50;99.90;;;;;;5023024;28;20076;-73
2024/01/16 00:09:52;;;;;;;1.08;0.30;;;-0.40;99.90;;;;;;5035625;28;20060;-73
2024/01/16 00:12:18;;;;;;;1.33;0.60;;;-0.40;99.90;;;;;;5016152;28;20046;-73
2024/01/16 00:14:44;;;;;;;3.40;0.28;;;-0.40;99.90;;;;;;5017415;28;20133;-73
2024/01/16 00:17:09;;;;;;;0.40;0.40;;;-0.40;99.90;;;;;;5015020;28;20073;-73
2024/01/16 00:19:35;;;;;;;0.65;0.25;;;-0.40;99.90;;;;;;5034587;28;20037;-73
2024/01/16 00:22:02;;;;;;;0.52;0.50;;;-0.40;99.90;;;;;;5014670;28;20053;-73
2024/01/16 00:24:28;;;;;;;0.00;0.00;;;-0.40;99.90;;;;;;5038128;28;20447;-73
2024/01/16 00:26:54;;;;;;;1.40;0.38;;;-0.50;99.90;;;;;;5021607;28;20057;-73
2024/01/16 00:29:20;;;;;;;2.47;1.25;;;-0.40;99.90;;;;;;5038604;28;20124;-73
2024/01/16 00:31:45;;;;;;;0.22;0.22;;;-0.40;99.90;;;;;;5040074;28;20053;-73
2024/01/16 00:34:11;;;;;;;0.75;0.20;;;-0.40;99.90;;;;;;5037908;28;20073;-74
2024/01/16 00:36:37;;;;;;;5.90;1.52;;;-0.40;99.90;;;;;;5039440;28;20049;-73
2024/01/16 00:39:03;;;;;;;1.20;0.50;;;-0.40;99.90;;;;;;5038525;28;20061;-73
2024/01/16 00:41:28;;;;;;;1.10;1.08;;;-0.40;99.90;;;;;;5040306;28;20124;-73
2024/01/16 00:43:54;;;;;;;0.90;0.68;;;-0.40;99.90;;;;;;5015575;28;20072;-73
2024/01/16 00:46:20;;;;;;;1.25;0.30;;;-0.40;99.90;;;;;;5031681;28;20095;-73
2024/01/16 00:48:46;;;;;;;5.00;0.55;;;-0.40;99.90;;;;;;5031764;28;20093;-73
2024/01/16 00:51:12;;;;;;;0.20;0.20;;;-0.40;99.90;;;;;;5032369;28;20037;-73
2024/01/16 00:53:41;;;;;;;5.00;0.38;;;-0.40;99.90;;;;;;5030848;28;20103;-73
2024/01/16 00:56:07;;;;;;;1.95;0.73;;;-0.40;99.90;;;;;;5016098;28;20053;-73
2024/01/16 00:58:33;;;;;;;2.05;0.25;;;-0.40;99.90;;;;;;5034852;28;20037;-73
2024/01/16 01:00:59;;;;;;;4.20;1.17;;;-0.40;99.90;;;;;;5028991;28;20056;-73
2024/01/16 01:03:24;;;;;;;0.25;0.20;;;-0.40;99.90;;;;;;5030722;28;20057;-73
2024/01/16 01:05:50;;;;;;;1.13;0.22;;;-0.30;99.90;;;;;;5030881;28;20055;-73
2024/01/16 01:08:16;;;;;;;0.43;0.43;;;-0.40;99.90;;;;;;5014776;28;20107;-73
2024/01/16 01:10:42;;;;;;;5.75;0.50;;;-0.40;99.90;;;;;;5016659;28;20053;-73
2024/01/16 01:13:08;;;;;;;2.40;1.05;;;-0.50;99.90;;;;;;5031078;28;20083;-73
2024/01/16 01:15:33;;;;;;;1.65;0.50;;;-0.50;99.90;;;;;;5032760;28;20045;-73
2024/01/16 01:17:59;;;;;;;2.83;0.20;;;-0.50;99.90;;;;;;5031348;28;20045;-73
2024/01/16 01:20:25;;;;;;;4.78;0.17;;;-0.50;99.90;;;;;;5011784;28;20064;-74
2024/01/16 01:22:51;;;;;;;1.38;0.35;;;-0.50;99.90;;;;;;5031651;28;20057;-74
2024/01/16 01:25:17;;;;;;;0.17;0.17;;;-0.60;99.90;;;;;;5030260;28;20069;-73
2024/01/16 01:27:42;;;;;;;0.32;0.32;;;-0.60;99.90;;;;;;5032980;28;20503;-73
2024/01/16 01:30:12;;;;;;;0.90;0.20;;;-0.60;99.90;;;;;;5047304;28;20947;-74
2024/01/16 01:32:38;;;;;;;0.10;0.10;;;-0.60;99.90;;;;;;5029570;28;20780;-73
2024/01/16 01:35:05;;;;;;;5.40;0.20;;;-0.60;99.90;;;;;;5029083;28;20052;-74
2024/01/16 01:37:31;;;;;;;3.88;0.75;;;-0.60;99.90;;;;;;5032290;28;20045;-74
2024/01/16 01:39:57;;;;;;;0.10;0.10;;;-0.70;99.90;;;;;;5032788;28;20041;-73
2024/01/16 01:42:22;;;;;;;0.10;0.10;;;-0.70;99.90;;;;;;5030326;28;20216;-73
2024/01/16 01:44:48;;;;;;;3.97;0.95;;;-0.60;99.90;;;;;;5029533;28;20109;-73
2024/01/16 01:47:14;;;;;;;5.95;0.20;;;-0.60;99.90;;;;;;5029441;28;20076;-74
2024/01/16 01:49:40;;;;;;;3.72;1.77;;;-0.60;99.90;;;;;;5050595;28;20037;-73
2024/01/16 01:52:07;;;;;;;0.30;0.22;;;-0.60;99.90;;;;;;5029330;28;20048;-73
2024/01/16 01:54:36;;;;;;;3.83;0.32;;;-0.60;99.90;;;;;;5014790;28;20053;-74
2024/01/16 01:57:03;;;;;;;0.68;0.57;;;-0.60;99.90;;;;;;5030446;28;20045;-74
2024/01/16 01:59:30;;;;;;;0.85;0.25;;;-0.60;99.90;;;;;;5033930;28;20048;-74
2024/01/16 02:01:56;;;;;;;2.00;0.85;;;-0.60;99.90;;;;;;5019750;28;20095;-73
2024/01/16 02:04:24;;;;;;;0.32;0.20;;;-0.60;99.90;;;;;;5019889;28;20049;-74
2024/01/16 02:06:50;;;;;;;0.10;0.10;;;-0.60;99.90;;;;;;5037219;28;20064;-74
2024/01/16 02:09:15;;;;;;;2.33;0.90;;;-0.60;99.90;;;;;;5035963;28;20037;-74
2024/01/16 02:11:42;;;;;;;0.45;0.30;;;-0.60;99.90;;;;;;5033713;28;20034;-74
2024/01/16 02:14:09;;;;;;;0.28;0.28;;;-0.60;99.90;;;;;;5029687;28;20056;-73
2024/01/16 02:16:39;;;;;;;0.52;0.52;;;-0.60;99.90;;;;;;5030584;28;20076;-74
2024/01/16 02:19:06;;;;;;;2.10;0.57;;;-0.60;99.90;;;;;;5030455;28;20046;-73
2024/01/16 02:21:39;;;;;;;3.15;0.82;;;-0.60;99.90;;;;;;5028356;28;20061;-73
2024/01/16 02:24:09;;;;;;;1.08;0.35;;;-0.60;99.90;;;;;;5047111;28;20046;-73
2024/01/16 02:26:35;;;;;;;1.10;0.63;;;-0.60;99.90;;;;;;5036043;28;20083;-73
2024/01/16 02:29:02;;;;;;;0.85;0.30;;;-0.60;99.90;;;;;;5037534;28;20037;-73
2024/01/16 02:31:28;;;;;;;0.30;0.10;;;-0.60;99.90;;;;;;5028066;28;20049;-73
2024/01/16 02:33:53;;;;;;;1.27;0.20;;;-0.70;99.90;;;;;;5016012;28;20044;-73
2024/01/16 02:36:19;;;;;;;0.40;0.30;;;-0.60;99.90;;;;;;5035493;28;20049;-73
2024/01/16 02:38:45;;;;;;;0.20;0.20;;;-0.70;99.90;;;;;;5015583;28;20072;-73
2024/01/16 02:41:13;;;;;;;0.20;0.20;;;-0.70;99.90;;;;;;5033778;28;20111;-73
2024/01/16 02:43:39;;;;;;;0.30;0.15;;;-0.70;99.90;;;;;;5003221;28;20568;-74
2024/01/16 02:46:05;;;;;;;1.10;0.43;;;-0.70;99.90;;;;;;5036741;28;20365;-73
2024/01/16 02:48:30;;;;;;;1.38;0.30;;;-0.70;99.90;;;;;;5031903;28;20529;-74
2024/01/16 02:50:56;;;;;;;1.70;0.22;;;-0.70;99.90;;;;;;5030961;28;20053;-73
2024/01/16 02:53:21;;;;;;;0.10;0.10;;;-0.70;99.90;;;;;;5034946;28;20038;-73
2024/01/16 02:55:47;;;;;;;0.10;0.10;;;-0.60;99.90;;;;;;5032852;28;20041;-73
2024/01/16 02:58:13;;;;;;;1.17;0.25;;;-0.70;99.90;;;;;;5034430;28;20084;-73
2024/01/16 03:00:38;;;;;;;0.10;0.10;;;-0.70;99.90;;;;;;5034699;28;20056;-73
2024/01/16 03:03:04;;;;;;;1.52;0.45;;;-0.60;99.90;;;;;;5019492;28;20041;-73
2024/01/16 03:05:30;;;;;;;1.45;0.68;;;-0.60;99.90;;;;;;5034977;28;20049;-73
2024/01/16 03:07:56;;;;;;;0.65;0.20;;;-0.50;99.90;;;;;;5033882;28;20504;-73
2024/01/16 03:10:21;;;;;;;6.75;0.50;;;-0.50;99.90;;;;;;5015283;28;20075;-73
2024/01/16 03:12:47;;;;;;;0.55;0.30;;;-0.40;99.90;;;;;;5034176;28;20037;-73
2024/01/16 03:15:13;;;;;;;0.20;0.20;;;-0.40;99.90;;;;;;5032573;28;20065;-73
2024/01/16 03:17:38;;;;;;;1.85;0.65;;;-0.30;99.90;;;;;;5034491;28;20041;-74
2024/01/16 03:20:05;;;;;;;0.47;0.30;;;-0.40;99.90;;;;;;5016825;28;20137;-73
2024/01/16 03:22:30;;;;;;;1.20;0.30;;;-0.40;99.90;;;;;;5033281;28;20045;-73
2024/01/16 03:24:56;;;;;;;2.65;0.52;;;-0.40;99.90;;;;;;5002699;28;20061;-73
2024/01/16 03:27:22;;;;;;;0.47;0.30;;;-0.40;99.90;;;;;;5002978;28;20101;-73
2024/01/16 03:29:48;;;;;;;0.55;0.55;;;-0.40;99.90;;;;;;5034970;28;20084;-73
2024/01/16 03:32:14;;;;;;;4.68;0.30;;;-0.50;99.90;;;;;;5039890;28;20152;-73
2024/01/16 03:34:40;;;;;;;1.30;0.60;;;-0.50;99.90;;;;;;5022328;28;20045;-73
2024/01/16 03:37:05;;;;;;;22.13;0.82;;;-0.60;99.90;;;;;;5043031;28;20037;-73
2024/01/16 03:39:31;;;;;;;0.30;0.30;;;-0.60;99.90;;;;;;5002127;28;20421;-73
2024/01/16 03:41:57;;;;;;;3.45;1.58;;;-0.60;99.90;;;;;;5034732;28;20064;-73
2024/01/16 03:44:22;;;;;;;0.63;0.22;;;-0.70;99.90;;;;;;5033424;28;20505;-73
2024/01/16 03:46:48;;;;;;;0.75;0.40;;;-0.60;99.90;;;;;;5014005;28;20492;-73
2024/01/16 03:49:13;;;;;;;1.70;0.45;;;-0.60;99.90;;;;;;5017859;28;20488;-73
2024/01/16 03:51:42;;;;;;;3.10;0.77;;;-0.60;99.90;;;;;;5032385;28;20072;-73
2024/01/16 03:54:08;;;;;;;5.47;1.10;;;-0.70;99.90;;;;;;5017267;28;20041;-73
2024/01/16 03:56:33;;;;;;;0.82;0.45;;;-0.70;99.90;;;;;;5032258;28;20049;-73
2024/01/16 03:58:59;;;;;;;8.77;0.73;;;-0.70;99.90;;;;;;5033878;28;20125;-73
2024/01/16 04:01:32;;;;;;;6.40;0.52;;;-0.70;99.90;;;;;;5031667;28;20049;-73
2024/01/16 04:03:57;;;;;;;0.52;0.52;;;-0.70;99.90;;;;;;5032495;28;20117;-73
2024/01/16 04:06:23;;;;;;;2.85;0.38;;;-0.70;99.90;;;;;;5031065;28;20065;-73
2024/01/16 04:08:49;;;;;;;0.10;0.10;;;-0.70;99.90;;;;;;5017377;28;20088;-73
2024/01/16 04:11:15;;;;;;;1.60;0.50;;;-0.70;99.90;;;;;;5020578;28;20053;-73
2024/01/16 04:13:41;;;;;;;0.17;0.17;;;-0.70;99.90;;;;;;5030573;28;20033;-73
2024/01/16 04:16:06;;;;;;;2.45;0.40;;;-0.70;99.90;;;;;;5030389;28;20049;-73
2024/01/16 04:18:39;;;;;;;3.83;1.30;;;-0.70;99.90;;;;;;5033936;28;20049;-73
2024/01/16 04:21:05;;;;;;;2.25;0.90;;;-0.70;99.90;;;;;;5032252;28;20041;-73
2024/01/16 04:23:32;;;;;;;0.47;0.35;;;-0.70;99.90;;;;;;5031096;28;20385;-73
2024/01/16 04:25:58;;;;;;;0.35;0.35;;;-0.70;99.90;;;;;;5035478;28;20088;-73
2024/01/16 04:28:23;;;;;;;0.10;0.10;;;-0.70;99.90;;;;;;5037050;28;20045;-73
2024/01/16 04:30:49;;;;;;;4.85;0.38;;;-0.70;99.90;;;;;;5021301;28;20041;-73
2024/01/16 04:33:15;;;;;;;1.10;0.55;;;-0.70;99.90;;;;;;5036363;28;20548;-73
2024/01/16 04:35:41;;;;;;;0.80;0.38;;;-0.60;99.90;;;;;;5021479;28;20065;-73
2024/01/16 04:38:07;;;;;;;2.25;0.43;;;-0.70;99.90;;;;;;5020164;28;20470;-73
2024/01/16 04:40:33;;;;;;;15.23;1.45;;;-0.70;99.90;;;;;;5039400;28;20414;-73
2024/01/16 04:42:59;;;;;;;0.30;0.30;;;-0.60;99.90;;;;;;5002150;28;20052;-73
2024/01/16 04:45:25;;;;;;;12.45;0.63;;;-0.70;99.90;;;;;;5039630;28;20053;-73
2024/01/16 04:47:51;;;;;;;0.10;0.10;;;-0.60;99.90;;;;;;5036663;28;20052;-73
2024/01/16 04:50:16;;;;;;;2.75;1.05;;;-0.60;99.90;;;;;;5038938;28;20049;-73
2024/01/16 04:52:43;;;;;;;2.17;1.05;;;-0.60;99.90;;;;;;5014501;28;20076;-72
2024/01/16 04:55:09;;;;;;;4.00;0.43;;;-0.60;99.90;;;;;;5029482;28;20488;-73
2024/01/16 04:57:34;;;;;;;3.08;0.47;;;-0.60;99.90;;;;;;5028214;28;20049;-73
2024/01/16 05:00:00;;;;;;;5.38;1.30;;;-0.60;99.90;;;;;;5034112;28;20045;-73
2024/01/16 05:02:26;;;;;;;0.43;0.22;;;-0.60;99.90;;;;;;5016559;28;20041;-73
2024/01/16 05:04:51;;;;;;;0.35;0.10;;;-0.60;99.90;;;;;;5027793;28;20077;-73
2024/01/16 05:07:23;;;;;;;0.38;0.38;;;-0.60;99.90;;;;;;5031942;28;20105;-73
2024/01/16 05:09:49;;;;;;;18.13;2.10;;;-0.60;99.90;;;;;;5038335;28;20063;-73
2024/01/16 05:12:14;;;;;;;1.20;1.00;;;-0.60;99.90;;;;;;5020340;28;20046;-73
2024/01/16 05:14:40;;;;;;;0.63;0.28;;;-0.60;99.90;;;;;;5037329;28;20049;-72
2024/01/16 05:17:06;;;;;;;1.08;0.40;;;-0.60;99.90;;;;;;5013371;28;20412;-73
2024/01/16 05:19:32;;;;;;;0.57;0.50;;;-0.60;99.90;;;;;;5037776;28;20511;-72
2024/01/16 05:21:57;;;;;;;3.05;0.45;;;-0.60;99.90;;;;;;5036657;28;20050;-73
2024/01/16 05:24:23;;;;;;;1.02;0.80;;;-0.60;99.90;;;;;;5015735;28;20053;-72
2024/01/16 05:26:49;;;;;;;2.95;0.45;;;-0.60;99.90;;;;;;5011854;28;20050;-72
2024/01/16 05:29:14;;;;;;;0.80;0.43;;;-0.60;99.90;;;;;;5031341;28;20060;-72
2024/01/16 05:31:43;;;;;;;0.30;0.30;;;-0.60;99.90;;;;;;5031376;28;20067;-72
2024/01/16 05:34:12;;;;;;;2.42;0.65;;;-0.60;99.90;;;;;;5029471;28;20063;-72
2024/01/16 05:36:38;;;;;;;6.75;0.43;;;-0.60;99.90;;;;;;5033196;28;20049;-72
2024/01/16 05:39:04;;;;;;;7.50;0.73;;;-0.60;99.90;;;;;;5035824;28;20425;-72
2024/01/16 05:41:34;;;;;;;0.90;0.90;;;-0.50;99.90;;;;;;5036365;28;20152;-73
2024/01/16 05:44:03;;;;;;;10.75;1.77;;;-0.60;99.90;;;;;;5014860;28;20049;-73
2024/01/16 05:46:29;;;;;;;4.85;1.05;;;-0.60;99.90;;;;;;5029512;28;20481;-72
2024/01/16 05:48:55;;;;;;;0.75;0.40;;;-0.60;99.90;;;;;;5029335;28;20048;-73
2024/01/16 05:51:21;;;;;;;1.20;0.75;;;-0.50;99.90;;;;;;5032227;28;20045;-73
2024/01/16 05:53:46;;;;;;;0.10;0.10;;;-0.60;99.90;;;;;;5031605;28;20074;-72
2024/01/16 05:56:12;;;;;;;0.30;0.20;;;-0.50;99.90;;;;;;5027524;28;20053;-72
2024/01/16 05:58:39;;;;;;;0.40;0.40;;;-0.40;99.90;;;;;;5028481;28;20061;-72
2024/01/16 06:01:05;;;;;;;7.30;0.75;;;-0.40;99.90;;;;;;5028979;28;20077;-72
2024/01/16 06:03:31;;;;;;;0.28;0.20;;;-0.30;99.90;;;;;;5029173;28;20046;-72
2024/01/16 06:05:56;;;;;;;1.00;0.60;;;-0.30;99.90;;;;;;5030121;28;20111;-72
2024/01/16 06:08:22;;;;;;;0.40;0.38;;;-0.20;99.90;;;;;;5029239;28;20052;-73
2024/01/16 06:10:48;;;;;;;0.20;0.20;;;-0.10;99.90;;;;;;5032566;28;20435;-72
2024/01/16 06:13:13;;;;;;;0.38;0.38;;;-0.20;99.90;;;;;;5017952;28;20876;-72
2024/01/16 06:15:39;;;;;;;1.27;0.30;;;-0.20;99.90;;;;;;5028797;28;20096;-72
2024/01/16 06:18:05;;;;;;;0.47;0.47;;;-0.20;99.90;;;;;;4998155;28;20096;-72
2024/01/16 06:20:32;;;;;;;6.90;0.90;;;-0.20;99.90;;;;;;5030012;28;20157;-72
2024/01/16 06:22:57;;;;;;;1.35;0.45;;;-0.20;99.90;;;;;;5029958;28;20056;-72
2024/01/16 06:25:23;;;;;;;0.30;0.30;;;-0.30;99.90;;;;;;5012511;28;20137;-72
2024/01/16 06:27:49;;;;;;;0.45;0.45;;;-0.30;99.90;;;;;;5037357;28;20046;-72
2024/01/16 06:30:14;;;;;;;9.35;0.65;;;-0.30;99.90;;;;;;5035129;28;20053;-73
2024/01/16 06:32:40;;;;;;;3.25;0.47;;;-0.30;99.90;;;;;;5018785;28;20080;-72
2024/01/16 06:35:07;;;;;;;5.55;1.42;;;-0.30;99.90;;;;;;5018043;28;20042;-72
2024/01/16 06:37:33;;;;;;;0.63;0.63;;;-0.30;99.90;;;;;;5019112;28;20111;-72
2024/01/16 06:39:59;;;;;;;9.40;1.05;;;-0.30;99.90;;;;;;5013229;28;20497;-72
2024/01/16 06:42:24;;;;;;;7.65;1.08;;;-0.30;99.90;;;;;;5053152;28;20041;-72
2024/01/16 06:44:50;;;;;;;0.70;0.70;;;-0.30;99.90;;;;;;5019384;28;20041;-72
2024/01/16 06:47:16;;;;;;;2.35;1.08;;;-0.30;99.90;;;;;;5034613;28;20103;-72
2024/01/16 06:49:41;;;;;;;0.93;0.82;;;-0.30;99.90;;;;;;5036721;28;20041;-72
2024/01/16 06:52:09;;;;;;;1.15;0.47;;;-0.30;99.90;;;;;;5030403;28;20121;-72
2024/01/16 06:54:34;;;;;;;4.47;0.82;;;-0.30;99.90;;;;;;5036908;28;20046;-72
2024/01/16 06:57:00;;;;;;;1.88;1.00;;;-0.30;99.90;;;;;;5036921;28;20067;-72
2024/01/16 06:59:26;;;;;;;0.80;0.80;;;-0.30;99.90;;;;;;4999329;28;20152;-73
2024/01/16 07:01:51;;;;;;;1.27;1.17;;;-0.30;99.90;;;;;;5037157;28;20105;-72
2024/01/16 07:04:17;;;;;;;1.25;0.52;;;-0.30;99.90;;;;;;5025344;28;20064;-76
2024/01/16 07:06:43;;;;;;;1.00;0.73;;;-0.30;99.90;;;;;;5027209;28;20638;-75
2024/01/16 07:09:12;;;;;;;1.40;0.57;;;-0.20;99.90;;;;;;5004023;28;20037;-75
2024/01/16 07:11:42;;;;;;;5.65;0.73;;;-0.30;99.90;;;;;;5014440;28;20049;-75
2024/01/16 07:14:11;;;;;;;1.35;0.73;;;-0.20;99.90;;;;;;5017594;28;20044;-76
2024/01/16 07:16:37;;;;;;;1.23;1.00;;;-0.10;99.90;;;;;;5033653;28;20083;-75
2024/01/16 07:19:03;;;;;;;0.88;0.70;;;-0.10;99.90;;;;;;5031584;28;20041;-75
2024/01/16 07:21:29;;;;;;;4.57;1.02;;;-0.10;99.90;;;;;;5012605;28;20045;-75
2024/01/16 07:23:55;;;;;;;2.03;1.02;;;-0.10;99.90;;;;;;5018234;28;20129;-75
2024/01/16 07:26:22;;;;;;;1.95;0.70;;;-0.10;99.90;;;;;;5016411;28;20049;-75
2024/01/16 07:28:48;;;;;;;0.98;0.93;;;-0.20;99.90;;;;;;5032049;28;20117;-75
2024/01/16 07:31:16;;;;;;;0.73;0.63;;;-0.10;99.90;;;;;;5013009;28;20073;-75
2024/01/16 07:33:42;;;;;;;1.77;0.88;;;-0.20;99.90;;;;;;4999362;28;20153;-75
2024/01/16 07:36:09;;;;;;;1.42;0.75;;;-0.20;99.90;;;;;;5026678;28;20049;-76
2024/01/16 07:38:36;;;;;;;1.50;1.08;;;-0.20;99.90;;;;;;5014836;28;20045;-76
2024/01/16 07:41:01;;;;;;;3.63;0.43;;;-0.20;99.90;;;;;;4999093;28;20045;-75
2024/01/16 07:43:29;;;;;;;0.73;0.73;;;-0.10;99.90;;;;;;5047197;28;20050;-75
2024/01/16 07:45:57;;;;;;;4.13;1.10;;;-0.20;99.90;;;;;;5010283;28;20069;-75
2024/01/16 07:48:23;;;;;;;6.28;1.98;;;-0.20;99.90;;;;;;5025856;28;20047;-76
2024/01/16 07:50:49;;;;;;;1.70;1.08;;;-0.10;99.90;;;;;;5025499;28;20100;-75
2024/01/16 07:53:15;;;;;;;2.25;1.48;;;-0.20;99.90;;;;;;5007162;28;20489;-75
2024/01/16 07:55:41;;;;;;;1.83;1.15;;;-0.20;99.90;;;;;;4989690;28;20100;-75
2024/01/16 07:58:07;;;;;;;0.95;0.75;;;-0.10;99.90;;;;;;5005022;28;20060;-75
2024/01/16 08:00:33;;;;;;;5.93;2.28;;;-0.10;99.90;;;;;;5030802;28;20045;-75
2024/01/16 08:02:59;;;;;;;2.15;1.10;;;-0.10;99.90;;;;;;5003257;28;20408;-75
2024/01/16 08:05:27;;;;;;;2.25;1.42;;;-0.10;99.90;;;;;;5001065;28;20044;-75
2024/01/16 08:07:54;;;;;;;3.50;1.98;;;0.00;99.90;;;;;;5016798;28;20056;-76
2024/01/16 08:10:19;;;;;;;3.55;1.52;;;0.10;99.90;;;;;;5000870;28;20522;-76
2024/01/16 08:12:45;;;;;;;3.55;1.42;;;0.20;99.90;;;;;;4983328;28;20072;-75
2024/01/16 08:15:11;;;;;;;2.15;1.95;;;0.20;99.90;;;;;;5032599;28;20050;-75
2024/01/16 08:17:37;;;;;;;2.35;1.02;;;0.30;99.90;;;;;;5031603;28;20038;-76
2024/01/16 08:20:03;;;;;;;4.32;1.20;;;0.30;99.90;;;;;;5016795;28;20041;-76
2024/01/16 08:22:29;;;;;;;2.88;1.00;;;0.30;99.90;;;;;;5033722;28;20076;-75
2024/01/16 08:24:55;;;;;;;4.03;2.08;;;0.40;99.90;;;;;;5000565;28;20053;-76
2024/01/16 08:27:21;;;;;;;3.72;1.27;;;0.40;99.90;;;;;;5032632;28;20072;-75
2024/01/16 08:29:49;;;;;;;6.50;1.48;;;0.40;99.90;;;;;;5014837;28;20109;-76
2024/01/16 08:32:16;;;;;;;1.60;0.95;;;0.40;99.90;;;;;;5000404;28;20066;-76
2024/01/16 08:34:42;;;;;;;1.92;1.33;;;0.50;99.90;;;;;;5018541;28;20038;-75
2024/01/16 08:37:09;;;;;;;7.25;2.20;;;0.50;99.90;;;;;;5020800;28;20053;-76
2024/01/16 08:39:35;;;;;;;3.55;2.05;;;0.50;99.90;;;;;;5021519;28;20041;-75
2024/01/16 08:42:02;;;;;;;2.55;1.80;;;0.50;99.90;;;;;;5005311;28;20050;-75
2024/01/16 08:44:29;;;;;;;2.60;2.08;;;0.50;99.90;;;;;;5037760;28;20077;-75
2024/01/16 08:46:54;;;;;;;3.15;1.67;;;0.60;99.90;;;;;;4999709;28;20523;-75
2024/01/16 08:49:20;;;;;;;3.83;1.83;;;0.60;99.90;;;;;;5001852;28;20535;-75
2024/01/16 08:51:46;;;;;;;5.60;2.80;;;0.60;99.90;;;;;;5015825;28;20574;-76
2024/01/16 08:54:11;;;;;;;8.70;2.17;;;0.70;99.90;;;;;;5017517;28;20034;-76
2024/01/16 08:56:37;;;;;;;4.18;1.85;;;0.80;99.90;;;;;;4985384;28;20037;-76
2024/01/16 08:59:03;;;;;;;7.10;2.03;;;0.80;99.90;;;;;;5032561;28;20076;-76
2024/01/16 09:01:29;;;;;;;7.45;2.88;;;0.90;99.90;;;;;;4998385;28;20049;-76
2024/01/16 09:03:54;;;;;;;3.58;2.10;;;0.70;99.90;;;;;;5013037;28;20045;-76
2024/01/16 09:06:21;;;;;;;2.67;2.13;;;0.80;99.90;;;;;;4983935;28;20041;-76
2024/01/16 09:08:47;;;;;;;3.38;1.85;;;0.80;99.90;;;;;;4998865;28;20599;-76
2024/01/16 09:11:12;;;;;;;3.17;1.60;;;0.80;99.90;;;;;;5001990;28;20050;-76
2024/01/16 09:13:38;;;;;;;2.17;1.13;;;0.80;99.90;;;;;;5014368;28;20034;-76
2024/01/16 09:16:04;;;;;;;3.13;2.08;;;0.80;99.90;;;;;;5000146;28;20072;-77
2024/01/16 09:18:30;;;;;;;3.83;1.10;;;0.80;99.90;;;;;;5001052;28;20069;-77
2024/01/16 09:20:56;;;;;;;3.95;2.38;;;0.80;99.90;;;;;;5030675;28;20037;-77
2024/01/16 09:23:22;;;;;;;2.17;1.20;;;0.80;99.90;;;;;;4997456;28;20049;-77
2024/01/16 09:25:48;;;;;;;5.03;2.30;;;0.80;99.90;;;;;;5012237;28;20096;-76
2024/01/16 09:28:14;;;;;;;2.58;1.77;;;0.90;99.90;;;;;;5002684;28;20038;-77
2024/01/16 09:30:42;;;;;;;3.65;1.08;;;0.90;99.90;;;;;;4983077;28;20102;-77
2024/01/16 09:33:10;;;;;;;2.38;1.85;;;1.00;99.90;;;;;;5015825;28;20044;-78
2024/01/16 09:35:36;;;;;;;1.90;0.90;;;1.10;99.90;;;;;;5016640;28;20083;-77
2024/01/16 09:38:01;;;;;;;5.78;1.35;;;1.10;99.90;;;;;;5031499;28;20037;-78
2024/01/16 09:40:27;;;;;;;1.08;0.98;;;1.10;99.90;;;;;;4998473;28;20052;-77
2024/01/16 09:42:53;;;;;;;6.57;1.67;;;1.20;99.90;;;;;;5032273;28;20037;-78
2024/01/16 09:45:24;;;;;;;5.65;1.48;;;1.20;99.90;;;;;;5008961;28;20100;-78
2024/01/16 09:47:52;;;;;;;4.50;2.08;;;1.20;99.90;;;;;;5030061;28;20585;-78
2024/01/16 09:50:19;;;;;;;3.05;1.58;;;1.20;99.90;;;;;;5015954;28;20048;-78
2024/01/16 09:52:48;;;;;;;1.10;0.85;;;1.20;99.90;;;;;;4997396;28;20034;-77
2024/01/16 09:55:15;;;;;;;5.00;1.67;;;1.20;99.90;;;;;;5010742;28;20030;-78
2024/01/16 09:57:42;;;;;;;3.08;1.67;;;1.30;99.90;;;;;;4999666;28;20040;-78
2024/01/16 10:00:11;;;;;;;1.27;1.05;;;1.20;99.90;;;;;;5015891;28;20060;-79
2024/01/16 10:02:41;;;;;;;2.63;1.70;;;1.30;99.90;;;;;;5014975;28;20155;-78
2024/01/16 10:05:09;;;;;;;5.43;1.38;;;1.30;99.90;;;;;;5015732;28;20045;-78
2024/01/16 10:07:39;;;;;;;1.92;1.23;;;1.30;99.90;;;;;;4988257;28;20041;-78
2024/01/16 10:10:06;;;;;;;4.82;1.50;;;1.30;99.90;;;;;;5021634;28;20131;-78
2024/01/16 10:12:32;;;;;;;3.75;0.88;;;1.30;99.90;;;;;;5037217;28;20041;-79
2024/01/16 10:14:59;;;;;;;2.72;1.20;;;1.40;99.90;;;;;;5037956;28;20378;-79
2024/01/16 10:17:42;;;;;;;1.40;0.77;;;1.40;99.90;;;;;;5033979;28;20080;-78
2024/01/16 10:20:13;;;;;;;5.03;0.95;;;1.50;99.90;;;;;;5003696;28;20041;-79
2024/01/16 10:22:52;;;;;;;2.40;1.00;;;1.40;99.90;;;;;;5029126;28;20128;-77
2024/01/16 10:25:19;;;;;;;0.50;0.50;;;1.50;99.90;;;;;;5017327;28;20046;-79
2024/01/16 10:27:46;;;;;;;0.75;0.55;;;1.40;99.90;;;;;;5022129;28;20049;-79
2024/01/16 10:30:12;;;;;;;4.03;0.65;;;1.50;99.90;;;;;;5052697;28;20030;-79
2024/01/16 10:32:42;;;;;;;1.73;1.38;;;1.40;99.90;;;;;;5022295;28;20116;-79
2024/01/16 10:35:10;;;;;;;1.40;0.65;;;1.40;99.90;;;;;;5030203;28;20073;-79
2024/01/16 10:37:43;;;;;;;2.00;0.60;;;1.40;99.90;;;;;;4997243;28;20052;-79
2024/01/16 10:40:09;;;;;;;3.03;0.75;;;1.50;99.90;;;;;;5024056;28;20128;-79
2024/01/16 10:42:35;;;;;;;3.42;1.05;;;1.50;99.90;;;;;;5028553;28;20051;-78
2024/01/16 10:45:01;;;;;;;1.50;0.52;;;1.50;99.90;;;;;;5009739;28;20547;-79
2024/01/16 10:47:27;;;;;;;0.73;0.43;;;1.60;99.90;;;;;;5031250;28;20041;-78
2024/01/16 10:49:53;;;;;;;0.52;0.52;;;1.60;99.90;;;;;;5037107;28;20064;-78
2024/01/16 10:52:25;;;;;;;2.63;1.00;;;1.60;99.90;;;;;;5035216;28;20045;-79
2024/01/16 10:54:51;;;;;;;1.35;0.88;;;1.60;99.90;;;;;;5032581;28;20080;-78
2024/01/16 10:57:18;;;;;;;1.48;0.85;;;1.50;99.90;;;;;;5041079;28;20038;-78
2024/01/16 11:00:00;;;;;;;12.30;0.93;;;1.60;99.90;;;;;;5028372;28;20048;-78
2024/01/16 11:02:30;;;;;;;;;;;1.50;99.90;;;;;;5025718;28;20045;-78
2024/01/16 11:04:57;;;;;;;4.53;1.35;;;1.50;99.90;;;;;;5038093;28;19927;-79
2024/01/16 11:07:24;;;;;;;2.83;1.13;;;1.50;99.90;;;;;;4985727;28;20132;-78
2024/01/16 11:09:50;;;;;;;0.60;0.30;;;1.40;99.90;;;;;;5033735;28;20046;-78
2024/01/16 11:12:17;;;;;;;0.95;0.60;;;1.50;99.90;;;;;;5037759;28;20119;-78
2024/01/16 11:14:50;;;;;;;1.52;0.85;;;1.50;99.90;;;;;;4997317;28;20045;-78
2024/01/16 11:17:20;;;;;;;1.20;0.57;;;1.50;99.90;;;;;;5020769;28;20080;-78
2024/01/16 11:19:47;;;;;;;4.85;1.85;;;1.60;99.90;;;;;;5023167;28;20041;-77
2024/01/16 11:22:15;;;;;;;7.07;0.77;;;1.50;99.90;;;;;;5020447;28;20044;-77
2024/01/16 11:24:42;;;;;;;1.42;1.13;;;1.60;99.90;;;;;;5032606;28;20101;-78
2024/01/16 11:27:08;;;;;;;0.95;0.60;;;1.50;99.90;;;;;;5040756;28;20037;-78
2024/01/16 11:29:35;;;;;;;2.78;0.70;;;1.50;99.90;;;;;;5039598;28;20982;-78
2024/01/16 11:32:03;;;;;;;1.65;1.08;;;1.40;99.90;;;;;;5022167;28;20765;-77
2024/01/16 11:34:41;;;;;;;1.75;0.95;;;1.40;99.90;;;;;;5017643;28;20041;-78
2024/01/16 11:37:15;;;;;;;7.35;2.45;;;1.40;99.90;;;;;;5038928;28;20045;-78
2024/01/16 11:39:40;;;;;;;1.50;1.15;;;1.40;99.90;;;;;;5007176;28;20044;-78
2024/01/16 11:42:09;;;;;;;4.13;1.48;;;1.40;99.90;;;;;;5023340;28;20077;-77
2024/01/16 11:44:43;;;;;;;4.30;1.63;;;1.30;99.90;;;;;;5018998;28;20038;-77
2024/01/16 11:47:21;;;;;;;3.50;1.85;;;1.30;99.90;;;;;;5021502;28;20518;-77
2024/01/16 11:49:48;;;;;;;2.67;1.38;;;1.30;99.90;;;;;;5037385;28;20053;-78
2024/01/16 11:52:15;;;;;;;6.85;2.05;;;1.30;99.90;;;;;;5013164;28;20100;-78
2024/01/16 11:54:42;;;;;;;2.13;1.63;;;1.30;99.90;;;;;;5035773;28;20404;-78
2024/01/16 11:57:16;;;;;;;4.10;1.73;;;1.30;99.90;;;;;;5023501;28;20121;-78
2024/01/16 11:59:42;;;;;;;4.20;2.30;;;1.30;99.90;;;;;;5038109;28;20057;-78
2024/01/16 12:02:14;;;;;;;5.35;1.70;;;1.30;99.90;;;;;;5039042;28;20037;-77
2024/01/16 12:04:39;;;;;;;3.58;2.35;;;1.30;99.90;;;;;;5031892;28;20453;-79
2024/01/16 12:07:05;;;;;;;5.85;2.25;;;1.30;99.90;;;;;;5033209;28;20041;-78
2024/01/16 12:09:31;;;;;;;4.60;2.30;;;1.30;99.90;;;;;;5006678;28;20038;-78
2024/01/16 12:12:02;;;;;;;4.70;1.98;;;1.30;99.90;;;;;;5037955;28;20049;-78
2024/01/16 12:14:28;;;;;;;2.53;1.65;;;1.30;99.90;;;;;;5023738;28;20113;-78
2024/01/16 12:17:12;;;;;;;1.85;1.55;;;1.40;99.90;;;;;;5002155;28;20048;-79
2024/01/16 12:19:40;;;;;;;3.83;2.35;;;1.40;99.90;;;;;;5031743;28;20076;-79
2024/01/16 12:22:09;;;;;;;3.78;3.15;;;1.40;99.90;;;;;;5031376;28;20369;-78
2024/01/16 12:24:35;;;;;;;5.10;1.95;;;1.40;99.90;;;;;;5017082;28;20109;-78
2024/01/16 12:27:01;;;;;;;4.97;2.05;;;1.40;99.90;;;;;;5039550;28;20044;-78
2024/01/16 12:29:27;;;;;;;6.75;2.97;;;1.50;99.90;;;;;;5022190;28;20045;-78
2024/01/16 12:32:09;;;;;;;11.15;2.70;;;1.50;99.90;;;;;;5039972;28;20088;-78
2024/01/16 12:34:42;;;;;;;8.18;2.45;;;1.60;99.90;;;;;;5038321;28;20073;-78
2024/01/16 12:37:08;;;;;;;3.67;2.33;;;1.60;99.90;;;;;;5037405;28;20045;-84
2024/01/16 12:39:35;;;;;;;4.72;2.10;;;1.60;99.90;;;;;;5021011;28;20060;-80
2024/01/16 12:42:01;;;;;;;3.45;2.05;;;1.70;99.90;;;;;;5038801;28;20551;-80
2024/01/16 12:44:30;;;;;;;14.55;2.53;;;1.70;99.90;;;;;;5015437;28;20061;-80
2024/01/16 12:46:57;;;;;;;2.03;1.67;;;1.70;99.90;;;;;;4977859;28;20037;-79